sensor_id;sensor_type;location;lat;lon;timestamp;P1;durP1;ratioP1;P2;durP2;ratioP2
8500;SDS011;4288;48.484;10.024;2023-03-31T00:01:00;2.00;;;1.20;;
8500;SDS011;4288;48.484;10.024;2023-03-31T00:03:28;6.20;;;1.50;;
8500;SDS011;4288;48.484;10.024;2023-03-31T00:05:58;6.07;;;1.60;;
8500;SDS011;4288;48.484;10.024;2023-03-31T00:08:26;3.17;;;1.70;;
8500;SDS011;4288;48.484;10.024;2023-03-31T00:10:59;1.50;;;1.40;;
8500;SDS011;4288;48.484;10.024;2023-03-31T00:13:27;1.93;;;1.73;;
8500;SDS011;4288;48.484;10.024;2023-03-31T00:15:59;7.20;;;1.70;;
8500;SDS011;4288;48.484;10.024;2023-03-31T00:18:27;3.43;;;1.33;;
8500;SDS011;4288;48.484;10.024;2023-03-31T00:20:58;4.20;;;1.33;;
8500;SDS011;4288;48.484;10.024;2023-03-31T00:23:32;5.20;;;1.57;;
8500;SDS011;4288;48.484;10.024;2023-03-31T00:25:59;2.90;;;1.50;;
8500;SDS011;4288;48.484;10.024;2023-03-31T00:28:26;12.67;;;2.47;;
8500;SDS011;4288;48.484;10.024;2023-03-31T00:30:53;6.27;;;2.00;;
8500;SDS011;4288;48.484;10.024;2023-03-31T00:33:27;7.57;;;1.50;;
8500;SDS011;4288;48.484;10.024;2023-03-31T00:35:54;3.07;;;1.40;;
8500;SDS011;4288;48.484;10.024;2023-03-31T00:38:25;1.47;;;1.37;;
8500;SDS011;4288;48.484;10.024;2023-03-31T00:40:53;2.00;;;1.20;;
8500;SDS011;4288;48.484;10.024;2023-03-31T00:43:25;3.70;;;1.80;;
8500;SDS011;4288;48.484;10.024;2023-03-31T00:45:54;2.30;;;1.20;;
8500;SDS011;4288;48.484;10.024;2023-03-31T00:48:31;3.33;;;1.40;;
8500;SDS011;4288;48.484;10.024;2023-03-31T00:50:59;3.17;;;1.40;;
8500;SDS011;4288;48.484;10.024;2023-03-31T00:53:30;2.90;;;1.83;;
8500;SDS011;4288;48.484;10.024;2023-03-31T00:55:58;3.90;;;1.20;;
8500;SDS011;4288;48.484;10.024;2023-03-31T00:58:27;7.93;;;1.90;;
8500;SDS011;4288;48.484;10.024;2023-03-31T01:00:57;7.47;;;1.43;;
8500;SDS011;4288;48.484;10.024;2023-03-31T01:03:28;9.37;;;1.60;;
8500;SDS011;4288;48.484;10.024;2023-03-31T01:05:58;11.87;;;1.80;;
8500;SDS011;4288;48.484;10.024;2023-03-31T01:08:27;7.20;;;1.77;;
8500;SDS011;4288;48.484;10.024;2023-03-31T01:10:55;4.27;;;1.97;;
8500;SDS011;4288;48.484;10.024;2023-03-31T01:13:23;1.90;;;1.37;;
8500;SDS011;4288;48.484;10.024;2023-03-31T01:15:51;2.17;;;1.50;;
8500;SDS011;4288;48.484;10.024;2023-03-31T01:18:18;7.63;;;2.30;;
8500;SDS011;4288;48.484;10.024;2023-03-31T01:20:56;10.37;;;2.20;;
8500;SDS011;4288;48.484;10.024;2023-03-31T01:24:02;3.50;;;1.80;;
8500;SDS011;4288;48.484;10.024;2023-03-31T01:26:41;7.30;;;1.70;;
8500;SDS011;4288;48.484;10.024;2023-03-31T01:32:26;6.00;;;2.00;;
8500;SDS011;4288;48.484;10.024;2023-03-31T01:35:09;3.67;;;2.20;;
8500;SDS011;4288;48.484;10.024;2023-03-31T01:38:12;4.07;;;1.90;;
8500;SDS011;4288;48.484;10.024;2023-03-31T01:40:55;2.23;;;2.03;;
8500;SDS011;4288;48.484;10.024;2023-03-31T01:43:28;4.37;;;1.50;;
8500;SDS011;4288;48.484;10.024;2023-03-31T01:46:00;2.77;;;1.53;;
8500;SDS011;4288;48.484;10.024;2023-03-31T01:48:36;5.53;;;1.60;;
8500;SDS011;4288;48.484;10.024;2023-03-31T01:51:11;5.77;;;1.63;;
8500;SDS011;4288;48.484;10.024;2023-03-31T01:53:43;1.97;;;1.60;;
8500;SDS011;4288;48.484;10.024;2023-03-31T01:56:16;2.27;;;1.37;;
8500;SDS011;4288;48.484;10.024;2023-03-31T01:58:48;7.90;;;1.77;;
8500;SDS011;4288;48.484;10.024;2023-03-31T02:01:19;3.20;;;2.50;;
8500;SDS011;4288;48.484;10.024;2023-03-31T02:03:49;2.93;;;1.63;;
8500;SDS011;4288;48.484;10.024;2023-03-31T02:06:22;5.77;;;1.80;;
8500;SDS011;4288;48.484;10.024;2023-03-31T02:08:53;7.77;;;1.83;;
8500;SDS011;4288;48.484;10.024;2023-03-31T02:11:24;13.33;;;1.97;;
8500;SDS011;4288;48.484;10.024;2023-03-31T02:13:53;3.80;;;1.60;;
8500;SDS011;4288;48.484;10.024;2023-03-31T02:16:23;2.20;;;1.57;;
8500;SDS011;4288;48.484;10.024;2023-03-31T02:18:52;2.10;;;1.30;;
8500;SDS011;4288;48.484;10.024;2023-03-31T02:21:26;5.50;;;1.63;;
8500;SDS011;4288;48.484;10.024;2023-03-31T02:23:53;8.30;;;2.20;;
8500;SDS011;4288;48.484;10.024;2023-03-31T02:26:22;5.10;;;1.97;;
8500;SDS011;4288;48.484;10.024;2023-03-31T02:28:52;5.80;;;2.03;;
8500;SDS011;4288;48.484;10.024;2023-03-31T02:31:22;6.90;;;1.77;;
8500;SDS011;4288;48.484;10.024;2023-03-31T02:33:52;4.53;;;1.70;;
8500;SDS011;4288;48.484;10.024;2023-03-31T02:36:20;3.97;;;1.60;;
8500;SDS011;4288;48.484;10.024;2023-03-31T02:38:48;6.77;;;1.80;;
8500;SDS011;4288;48.484;10.024;2023-03-31T02:41:18;7.63;;;2.57;;
8500;SDS011;4288;48.484;10.024;2023-03-31T02:43:46;5.17;;;1.97;;
8500;SDS011;4288;48.484;10.024;2023-03-31T02:46:13;4.83;;;2.20;;
8500;SDS011;4288;48.484;10.024;2023-03-31T02:48:40;4.33;;;1.40;;
8500;SDS011;4288;48.484;10.024;2023-03-31T02:51:19;9.47;;;2.10;;
8500;SDS011;4288;48.484;10.024;2023-03-31T02:54:02;6.43;;;1.80;;
8500;SDS011;4288;48.484;10.024;2023-03-31T02:56:53;6.97;;;2.23;;
8500;SDS011;4288;48.484;10.024;2023-03-31T02:59:43;9.53;;;3.00;;
8500;SDS011;4288;48.484;10.024;2023-03-31T03:02:16;5.77;;;2.40;;
8500;SDS011;4288;48.484;10.024;2023-03-31T03:04:53;9.60;;;3.00;;
8500;SDS011;4288;48.484;10.024;2023-03-31T03:07:44;10.53;;;2.70;;
8500;SDS011;4288;48.484;10.024;2023-03-31T03:10:15;5.37;;;1.80;;
8500;SDS011;4288;48.484;10.024;2023-03-31T03:12:47;2.90;;;2.00;;
8500;SDS011;4288;48.484;10.024;2023-03-31T03:15:20;4.50;;;2.50;;
8500;SDS011;4288;48.484;10.024;2023-03-31T03:17:50;3.77;;;2.23;;
8500;SDS011;4288;48.484;10.024;2023-03-31T03:20:18;5.63;;;2.13;;
8500;SDS011;4288;48.484;10.024;2023-03-31T03:22:45;3.60;;;2.33;;
8500;SDS011;4288;48.484;10.024;2023-03-31T03:25:13;3.60;;;1.93;;
8500;SDS011;4288;48.484;10.024;2023-03-31T03:27:42;6.10;;;3.00;;
8500;SDS011;4288;48.484;10.024;2023-03-31T03:30:09;2.13;;;1.43;;
8500;SDS011;4288;48.484;10.024;2023-03-31T03:32:39;6.00;;;2.40;;
8500;SDS011;4288;48.484;10.024;2023-03-31T03:35:07;4.80;;;2.67;;
8500;SDS011;4288;48.484;10.024;2023-03-31T03:37:35;11.83;;;2.40;;
8500;SDS011;4288;48.484;10.024;2023-03-31T03:40:02;4.47;;;2.97;;
8500;SDS011;4288;48.484;10.024;2023-03-31T03:42:31;9.07;;;2.80;;
8500;SDS011;4288;48.484;10.024;2023-03-31T03:44:57;6.13;;;2.60;;
8500;SDS011;4288;48.484;10.024;2023-03-31T03:47:25;4.83;;;2.77;;
8500;SDS011;4288;48.484;10.024;2023-03-31T03:49:53;7.00;;;3.00;;
8500;SDS011;4288;48.484;10.024;2023-03-31T03:52:20;5.70;;;3.20;;
8500;SDS011;4288;48.484;10.024;2023-03-31T03:54:47;8.67;;;3.00;;
8500;SDS011;4288;48.484;10.024;2023-03-31T03:57:14;5.77;;;2.93;;
8500;SDS011;4288;48.484;10.024;2023-03-31T03:59:41;6.10;;;3.33;;
8500;SDS011;4288;48.484;10.024;2023-03-31T04:02:07;5.93;;;3.67;;
8500;SDS011;4288;48.484;10.024;2023-03-31T04:04:34;8.73;;;3.60;;
8500;SDS011;4288;48.484;10.024;2023-03-31T04:07:02;9.10;;;4.53;;
8500;SDS011;4288;48.484;10.024;2023-03-31T04:09:30;9.27;;;3.87;;
8500;SDS011;4288;48.484;10.024;2023-03-31T04:11:56;6.07;;;3.30;;
8500;SDS011;4288;48.484;10.024;2023-03-31T04:14:23;9.93;;;4.13;;
8500;SDS011;4288;48.484;10.024;2023-03-31T04:16:51;5.57;;;3.40;;
8500;SDS011;4288;48.484;10.024;2023-03-31T04:19:20;6.73;;;4.33;;
8500;SDS011;4288;48.484;10.024;2023-03-31T04:21:49;8.50;;;3.97;;
8500;SDS011;4288;48.484;10.024;2023-03-31T04:24:24;10.70;;;5.07;;
8500;SDS011;4288;48.484;10.024;2023-03-31T04:26:56;5.60;;;3.90;;
8500;SDS011;4288;48.484;10.024;2023-03-31T04:29:24;7.20;;;3.63;;
8500;SDS011;4288;48.484;10.024;2023-03-31T04:31:51;7.70;;;3.07;;
8500;SDS011;4288;48.484;10.024;2023-03-31T04:34:23;6.53;;;4.00;;
8500;SDS011;4288;48.484;10.024;2023-03-31T04:36:58;6.83;;;4.10;;
8500;SDS011;4288;48.484;10.024;2023-03-31T04:39:28;14.10;;;4.27;;
8500;SDS011;4288;48.484;10.024;2023-03-31T04:41:59;10.73;;;4.67;;
8500;SDS011;4288;48.484;10.024;2023-03-31T04:44:26;19.17;;;3.90;;
8500;SDS011;4288;48.484;10.024;2023-03-31T04:46:53;8.23;;;3.83;;
8500;SDS011;4288;48.484;10.024;2023-03-31T04:49:20;9.50;;;3.93;;
8500;SDS011;4288;48.484;10.024;2023-03-31T04:51:47;3.63;;;3.33;;
8500;SDS011;4288;48.484;10.024;2023-03-31T04:54:14;5.47;;;4.00;;
8500;SDS011;4288;48.484;10.024;2023-03-31T04:56:42;9.60;;;4.00;;
8500;SDS011;4288;48.484;10.024;2023-03-31T04:59:09;8.83;;;4.20;;
8500;SDS011;4288;48.484;10.024;2023-03-31T05:01:36;16.73;;;6.10;;
8500;SDS011;4288;48.484;10.024;2023-03-31T05:04:03;11.43;;;5.77;;
8500;SDS011;4288;48.484;10.024;2023-03-31T05:06:30;9.47;;;4.60;;
8500;SDS011;4288;48.484;10.024;2023-03-31T05:08:58;8.33;;;4.10;;
8500;SDS011;4288;48.484;10.024;2023-03-31T05:11:25;9.17;;;4.43;;
8500;SDS011;4288;48.484;10.024;2023-03-31T05:13:54;5.77;;;3.73;;
8500;SDS011;4288;48.484;10.024;2023-03-31T05:16:21;7.27;;;5.10;;
8500;SDS011;4288;48.484;10.024;2023-03-31T05:18:48;8.37;;;4.33;;
8500;SDS011;4288;48.484;10.024;2023-03-31T05:21:15;6.90;;;3.70;;
8500;SDS011;4288;48.484;10.024;2023-03-31T05:23:43;12.53;;;6.80;;
8500;SDS011;4288;48.484;10.024;2023-03-31T05:26:10;16.43;;;10.87;;
8500;SDS011;4288;48.484;10.024;2023-03-31T05:28:38;15.80;;;10.50;;
8500;SDS011;4288;48.484;10.024;2023-03-31T05:31:06;17.13;;;11.30;;
8500;SDS011;4288;48.484;10.024;2023-03-31T05:33:34;15.87;;;13.07;;
8500;SDS011;4288;48.484;10.024;2023-03-31T05:36:04;26.57;;;15.90;;
8500;SDS011;4288;48.484;10.024;2023-03-31T05:38:32;18.00;;;12.40;;
8500;SDS011;4288;48.484;10.024;2023-03-31T05:40:59;20.87;;;13.00;;
8500;SDS011;4288;48.484;10.024;2023-03-31T05:43:25;17.07;;;11.60;;
8500;SDS011;4288;48.484;10.024;2023-03-31T05:45:52;25.30;;;16.30;;
8500;SDS011;4288;48.484;10.024;2023-03-31T05:48:20;18.90;;;13.87;;
8500;SDS011;4288;48.484;10.024;2023-03-31T05:50:47;22.27;;;10.63;;
8500;SDS011;4288;48.484;10.024;2023-03-31T05:53:14;11.57;;;6.30;;
8500;SDS011;4288;48.484;10.024;2023-03-31T05:55:41;15.30;;;6.60;;
8500;SDS011;4288;48.484;10.024;2023-03-31T05:58:08;19.97;;;6.60;;
8500;SDS011;4288;48.484;10.024;2023-03-31T06:00:35;11.17;;;5.17;;
8500;SDS011;4288;48.484;10.024;2023-03-31T06:03:02;6.20;;;4.37;;
8500;SDS011;4288;48.484;10.024;2023-03-31T06:05:33;10.20;;;4.73;;
8500;SDS011;4288;48.484;10.024;2023-03-31T06:08:00;10.30;;;4.37;;
8500;SDS011;4288;48.484;10.024;2023-03-31T06:10:27;6.23;;;4.73;;
8500;SDS011;4288;48.484;10.024;2023-03-31T06:12:54;12.80;;;5.40;;
8500;SDS011;4288;48.484;10.024;2023-03-31T06:15:21;13.20;;;7.13;;
8500;SDS011;4288;48.484;10.024;2023-03-31T06:17:48;9.20;;;5.73;;
8500;SDS011;4288;48.484;10.024;2023-03-31T06:20:15;9.77;;;5.50;;
8500;SDS011;4288;48.484;10.024;2023-03-31T06:22:43;9.80;;;6.07;;
8500;SDS011;4288;48.484;10.024;2023-03-31T06:25:10;11.07;;;5.60;;
8500;SDS011;4288;48.484;10.024;2023-03-31T06:27:37;15.37;;;5.40;;
8500;SDS011;4288;48.484;10.024;2023-03-31T06:30:04;9.53;;;5.00;;
8500;SDS011;4288;48.484;10.024;2023-03-31T06:32:31;7.17;;;4.93;;
8500;SDS011;4288;48.484;10.024;2023-03-31T06:34:58;9.23;;;5.50;;
8500;SDS011;4288;48.484;10.024;2023-03-31T06:37:25;5.63;;;4.50;;
8500;SDS011;4288;48.484;10.024;2023-03-31T06:39:53;7.23;;;6.27;;
8500;SDS011;4288;48.484;10.024;2023-03-31T06:42:20;11.60;;;5.73;;
8500;SDS011;4288;48.484;10.024;2023-03-31T06:44:47;5.50;;;4.77;;
8500;SDS011;4288;48.484;10.024;2023-03-31T06:47:14;6.80;;;5.17;;
8500;SDS011;4288;48.484;10.024;2023-03-31T06:49:41;6.87;;;4.97;;
8500;SDS011;4288;48.484;10.024;2023-03-31T06:52:07;6.73;;;4.80;;
8500;SDS011;4288;48.484;10.024;2023-03-31T06:54:34;9.10;;;4.90;;
8500;SDS011;4288;48.484;10.024;2023-03-31T06:57:02;10.53;;;5.20;;
8500;SDS011;4288;48.484;10.024;2023-03-31T06:59:29;12.60;;;5.90;;
8500;SDS011;4288;48.484;10.024;2023-03-31T07:01:56;11.63;;;7.10;;
8500;SDS011;4288;48.484;10.024;2023-03-31T07:04:23;11.30;;;7.50;;
8500;SDS011;4288;48.484;10.024;2023-03-31T07:06:50;16.13;;;6.30;;
8500;SDS011;4288;48.484;10.024;2023-03-31T07:09:17;13.20;;;6.23;;
8500;SDS011;4288;48.484;10.024;2023-03-31T07:11:45;17.47;;;6.47;;
8500;SDS011;4288;48.484;10.024;2023-03-31T07:14:13;14.27;;;5.97;;
8500;SDS011;4288;48.484;10.024;2023-03-31T07:16:40;9.30;;;5.53;;
8500;SDS011;4288;48.484;10.024;2023-03-31T07:19:07;12.63;;;6.47;;
8500;SDS011;4288;48.484;10.024;2023-03-31T07:21:35;8.97;;;5.10;;
8500;SDS011;4288;48.484;10.024;2023-03-31T07:24:02;12.50;;;5.60;;
8500;SDS011;4288;48.484;10.024;2023-03-31T07:26:29;10.77;;;6.40;;
8500;SDS011;4288;48.484;10.024;2023-03-31T07:28:56;11.57;;;7.50;;
8500;SDS011;4288;48.484;10.024;2023-03-31T07:31:24;14.17;;;6.60;;
8500;SDS011;4288;48.484;10.024;2023-03-31T07:33:51;12.13;;;5.40;;
8500;SDS011;4288;48.484;10.024;2023-03-31T07:36:18;17.97;;;8.07;;
8500;SDS011;4288;48.484;10.024;2023-03-31T07:38:45;8.90;;;6.63;;
8500;SDS011;4288;48.484;10.024;2023-03-31T07:41:14;33.77;;;12.00;;
8500;SDS011;4288;48.484;10.024;2023-03-31T07:43:42;21.47;;;7.33;;
8500;SDS011;4288;48.484;10.024;2023-03-31T07:46:13;12.33;;;6.80;;
8500;SDS011;4288;48.484;10.024;2023-03-31T07:48:42;14.00;;;7.20;;
8500;SDS011;4288;48.484;10.024;2023-03-31T07:51:10;10.83;;;6.17;;
8500;SDS011;4288;48.484;10.024;2023-03-31T07:53:37;8.93;;;5.07;;
8500;SDS011;4288;48.484;10.024;2023-03-31T07:56:04;3.37;;;2.73;;
8500;SDS011;4288;48.484;10.024;2023-03-31T07:58:31;4.63;;;2.60;;
8500;SDS011;4288;48.484;10.024;2023-03-31T08:00:58;4.63;;;1.10;;
8500;SDS011;4288;48.484;10.024;2023-03-31T08:03:26;1.30;;;1.17;;
8500;SDS011;4288;48.484;10.024;2023-03-31T08:05:54;3.00;;;0.87;;
8500;SDS011;4288;48.484;10.024;2023-03-31T08:08:21;6.37;;;0.87;;
8500;SDS011;4288;48.484;10.024;2023-03-31T08:10:47;1.07;;;0.90;;
8500;SDS011;4288;48.484;10.024;2023-03-31T08:13:14;2.43;;;1.07;;
8500;SDS011;4288;48.484;10.024;2023-03-31T08:15:41;0.73;;;0.63;;
8500;SDS011;4288;48.484;10.024;2023-03-31T08:18:08;2.00;;;0.77;;
8500;SDS011;4288;48.484;10.024;2023-03-31T08:20:35;0.60;;;0.60;;
8500;SDS011;4288;48.484;10.024;2023-03-31T08:23:04;1.30;;;0.70;;
8500;SDS011;4288;48.484;10.024;2023-03-31T08:25:35;2.60;;;0.60;;
8500;SDS011;4288;48.484;10.024;2023-03-31T08:28:02;0.60;;;0.60;;
8500;SDS011;4288;48.484;10.024;2023-03-31T08:30:29;0.60;;;0.53;;
8500;SDS011;4288;48.484;10.024;2023-03-31T08:32:56;2.93;;;0.60;;
8500;SDS011;4288;48.484;10.024;2023-03-31T08:35:22;2.70;;;0.87;;
8500;SDS011;4288;48.484;10.024;2023-03-31T08:37:49;1.07;;;1.00;;
8500;SDS011;4288;48.484;10.024;2023-03-31T08:40:18;3.30;;;0.50;;
8500;SDS011;4288;48.484;10.024;2023-03-31T08:42:48;0.93;;;0.70;;
8500;SDS011;4288;48.484;10.024;2023-03-31T08:45:17;1.90;;;0.53;;
8500;SDS011;4288;48.484;10.024;2023-03-31T08:47:47;1.80;;;0.60;;
8500;SDS011;4288;48.484;10.024;2023-03-31T08:50:18;0.80;;;0.50;;
8500;SDS011;4288;48.484;10.024;2023-03-31T08:52:49;2.40;;;0.80;;
8500;SDS011;4288;48.484;10.024;2023-03-31T08:55:23;1.33;;;0.67;;
8500;SDS011;4288;48.484;10.024;2023-03-31T08:57:54;1.53;;;0.50;;
8500;SDS011;4288;48.484;10.024;2023-03-31T09:00:24;2.07;;;0.70;;
8500;SDS011;4288;48.484;10.024;2023-03-31T09:02:53;1.10;;;0.57;;
8500;SDS011;4288;48.484;10.024;2023-03-31T09:05:29;0.63;;;0.57;;
8500;SDS011;4288;48.484;10.024;2023-03-31T09:08:12;0.73;;;0.60;;
8500;SDS011;4288;48.484;10.024;2023-03-31T09:10:45;1.00;;;0.50;;
8500;SDS011;4288;48.484;10.024;2023-03-31T09:13:20;1.13;;;0.60;;
8500;SDS011;4288;48.484;10.024;2023-03-31T09:15:57;0.60;;;0.50;;
8500;SDS011;4288;48.484;10.024;2023-03-31T09:18:27;0.50;;;0.43;;
8500;SDS011;4288;48.484;10.024;2023-03-31T09:21:01;0.63;;;0.60;;
8500;SDS011;4288;48.484;10.024;2023-03-31T09:23:32;2.07;;;0.60;;
8500;SDS011;4288;48.484;10.024;2023-03-31T09:26:03;1.27;;;0.60;;
8500;SDS011;4288;48.484;10.024;2023-03-31T09:28:31;2.60;;;0.60;;
8500;SDS011;4288;48.484;10.024;2023-03-31T09:31:02;4.20;;;1.53;;
8500;SDS011;4288;48.484;10.024;2023-03-31T09:33:36;0.60;;;0.50;;
8500;SDS011;4288;48.484;10.024;2023-03-31T09:36:07;1.73;;;0.50;;
8500;SDS011;4288;48.484;10.024;2023-03-31T09:38:40;1.27;;;0.50;;
8500;SDS011;4288;48.484;10.024;2023-03-31T09:41:09;5.50;;;1.00;;
8500;SDS011;4288;48.484;10.024;2023-03-31T09:43:37;1.60;;;0.60;;
8500;SDS011;4288;48.484;10.024;2023-03-31T09:46:09;3.67;;;1.17;;
8500;SDS011;4288;48.484;10.024;2023-03-31T09:48:41;0.67;;;0.53;;
8500;SDS011;4288;48.484;10.024;2023-03-31T09:51:16;1.83;;;0.73;;
8500;SDS011;4288;48.484;10.024;2023-03-31T09:53:45;6.50;;;2.03;;
8500;SDS011;4288;48.484;10.024;2023-03-31T09:56:20;5.00;;;0.60;;
8500;SDS011;4288;48.484;10.024;2023-03-31T09:58:59;28.73;;;1.10;;
8500;SDS011;4288;48.484;10.024;2023-03-31T10:01:27;0.90;;;0.80;;
8500;SDS011;4288;48.484;10.024;2023-03-31T10:03:55;4.03;;;0.60;;
8500;SDS011;4288;48.484;10.024;2023-03-31T10:06:23;0.87;;;0.57;;
8500;SDS011;4288;48.484;10.024;2023-03-31T10:08:50;2.40;;;0.60;;
8500;SDS011;4288;48.484;10.024;2023-03-31T10:11:21;1.80;;;0.83;;
8500;SDS011;4288;48.484;10.024;2023-03-31T10:13:49;0.73;;;0.40;;
8500;SDS011;4288;48.484;10.024;2023-03-31T10:16:24;3.17;;;0.77;;
8500;SDS011;4288;48.484;10.024;2023-03-31T10:18:53;3.13;;;0.70;;
8500;SDS011;4288;48.484;10.024;2023-03-31T10:21:22;3.37;;;0.80;;
8500;SDS011;4288;48.484;10.024;2023-03-31T10:23:50;2.30;;;0.77;;
8500;SDS011;4288;48.484;10.024;2023-03-31T10:26:19;3.80;;;0.77;;
8500;SDS011;4288;48.484;10.024;2023-03-31T10:28:49;2.30;;;0.67;;
8500;SDS011;4288;48.484;10.024;2023-03-31T10:31:19;4.43;;;0.70;;
8500;SDS011;4288;48.484;10.024;2023-03-31T10:33:51;2.10;;;0.70;;
8500;SDS011;4288;48.484;10.024;2023-03-31T10:36:20;2.77;;;0.97;;
8500;SDS011;4288;48.484;10.024;2023-03-31T10:38:49;3.23;;;0.80;;
8500;SDS011;4288;48.484;10.024;2023-03-31T10:41:17;0.90;;;0.63;;
8500;SDS011;4288;48.484;10.024;2023-03-31T10:43:48;3.40;;;0.90;;
8500;SDS011;4288;48.484;10.024;2023-03-31T10:46:16;1.10;;;0.53;;
8500;SDS011;4288;48.484;10.024;2023-03-31T10:48:43;5.03;;;1.17;;
8500;SDS011;4288;48.484;10.024;2023-03-31T10:51:11;7.20;;;0.87;;
8500;SDS011;4288;48.484;10.024;2023-03-31T10:53:41;5.13;;;0.77;;
8500;SDS011;4288;48.484;10.024;2023-03-31T10:56:14;3.73;;;0.80;;
8500;SDS011;4288;48.484;10.024;2023-03-31T10:59:01;1.40;;;0.63;;
8500;SDS011;4288;48.484;10.024;2023-03-31T11:01:38;2.63;;;0.67;;
8500;SDS011;4288;48.484;10.024;2023-03-31T11:07:14;2.90;;;0.90;;
8500;SDS011;4288;48.484;10.024;2023-03-31T11:09:54;1.53;;;0.57;;
8500;SDS011;4288;48.484;10.024;2023-03-31T11:12:30;2.97;;;0.80;;
8500;SDS011;4288;48.484;10.024;2023-03-31T11:15:05;3.60;;;0.63;;
8500;SDS011;4288;48.484;10.024;2023-03-31T11:17:44;0.70;;;0.70;;
8500;SDS011;4288;48.484;10.024;2023-03-31T11:20:20;2.43;;;0.80;;
8500;SDS011;4288;48.484;10.024;2023-03-31T11:22:53;1.73;;;0.70;;
8500;SDS011;4288;48.484;10.024;2023-03-31T11:25:26;3.73;;;0.70;;
8500;SDS011;4288;48.484;10.024;2023-03-31T11:28:03;1.37;;;0.60;;
8500;SDS011;4288;48.484;10.024;2023-03-31T11:30:46;3.77;;;0.70;;
8500;SDS011;4288;48.484;10.024;2023-03-31T11:33:23;1.53;;;0.70;;
8500;SDS011;4288;48.484;10.024;2023-03-31T11:36:01;8.00;;;1.03;;
8500;SDS011;4288;48.484;10.024;2023-03-31T11:38:40;2.70;;;0.60;;
8500;SDS011;4288;48.484;10.024;2023-03-31T11:41:18;1.07;;;0.73;;
8500;SDS011;4288;48.484;10.024;2023-03-31T11:43:47;1.90;;;0.67;;
8500;SDS011;4288;48.484;10.024;2023-03-31T11:46:19;2.90;;;0.70;;
8500;SDS011;4288;48.484;10.024;2023-03-31T11:48:50;3.30;;;1.67;;
8500;SDS011;4288;48.484;10.024;2023-03-31T11:51:23;4.63;;;0.83;;
8500;SDS011;4288;48.484;10.024;2023-03-31T11:53:52;4.60;;;0.60;;
8500;SDS011;4288;48.484;10.024;2023-03-31T11:56:19;2.43;;;0.73;;
8500;SDS011;4288;48.484;10.024;2023-03-31T11:58:48;4.07;;;0.70;;
8500;SDS011;4288;48.484;10.024;2023-03-31T12:01:22;4.43;;;1.43;;
8500;SDS011;4288;48.484;10.024;2023-03-31T12:03:52;8.70;;;1.13;;
8500;SDS011;4288;48.484;10.024;2023-03-31T12:06:22;1.30;;;0.60;;
8500;SDS011;4288;48.484;10.024;2023-03-31T12:08:53;23.97;;;1.17;;
8500;SDS011;4288;48.484;10.024;2023-03-31T12:11:30;0.87;;;0.50;;
8500;SDS011;4288;48.484;10.024;2023-03-31T12:14:05;1.13;;;0.40;;
8500;SDS011;4288;48.484;10.024;2023-03-31T12:16:40;0.50;;;0.40;;
8500;SDS011;4288;48.484;10.024;2023-03-31T12:19:10;0.50;;;0.47;;
8500;SDS011;4288;48.484;10.024;2023-03-31T12:21:40;1.00;;;0.40;;
8500;SDS011;4288;48.484;10.024;2023-03-31T12:24:10;2.00;;;0.53;;
8500;SDS011;4288;48.484;10.024;2023-03-31T12:26:39;1.13;;;0.50;;
8500;SDS011;4288;48.484;10.024;2023-03-31T12:29:15;0.67;;;0.50;;
8500;SDS011;4288;48.484;10.024;2023-03-31T12:31:49;5.20;;;0.70;;
8500;SDS011;4288;48.484;10.024;2023-03-31T12:34:17;0.60;;;0.50;;
8500;SDS011;4288;48.484;10.024;2023-03-31T12:36:48;2.00;;;0.50;;
8500;SDS011;4288;48.484;10.024;2023-03-31T12:39:23;1.40;;;0.40;;
8500;SDS011;4288;48.484;10.024;2023-03-31T12:42:00;1.87;;;0.67;;
8500;SDS011;4288;48.484;10.024;2023-03-31T12:44:37;1.10;;;0.50;;
8500;SDS011;4288;48.484;10.024;2023-03-31T12:47:19;0.80;;;0.53;;
8500;SDS011;4288;48.484;10.024;2023-03-31T12:50:11;1.23;;;0.40;;
8500;SDS011;4288;48.484;10.024;2023-03-31T12:52:49;1.40;;;0.50;;
8500;SDS011;4288;48.484;10.024;2023-03-31T13:01:02;3.43;;;0.60;;
8500;SDS011;4288;48.484;10.024;2023-03-31T13:03:43;3.70;;;0.57;;
8500;SDS011;4288;48.484;10.024;2023-03-31T13:12:16;0.50;;;0.50;;
8500;SDS011;4288;48.484;10.024;2023-03-31T13:14:44;0.90;;;0.60;;
8500;SDS011;4288;48.484;10.024;2023-03-31T13:17:22;3.17;;;0.60;;
8500;SDS011;4288;48.484;10.024;2023-03-31T13:19:52;3.33;;;0.70;;
8500;SDS011;4288;48.484;10.024;2023-03-31T13:22:27;9.03;;;0.90;;
8500;SDS011;4288;48.484;10.024;2023-03-31T13:27:51;3.07;;;0.60;;
8500;SDS011;4288;48.484;10.024;2023-03-31T13:33:11;2.00;;;1.63;;
8500;SDS011;4288;48.484;10.024;2023-03-31T13:35:43;1.40;;;0.63;;
8500;SDS011;4288;48.484;10.024;2023-03-31T13:38:14;1.73;;;0.67;;
8500;SDS011;4288;48.484;10.024;2023-03-31T13:40:54;4.80;;;0.70;;
8500;SDS011;4288;48.484;10.024;2023-03-31T13:46:35;1.27;;;0.67;;
8500;SDS011;4288;48.484;10.024;2023-03-31T13:49:23;1.50;;;0.60;;
8500;SDS011;4288;48.484;10.024;2023-03-31T13:52:15;3.83;;;0.67;;
8500;SDS011;4288;48.484;10.024;2023-03-31T13:55:05;1.03;;;0.50;;
8500;SDS011;4288;48.484;10.024;2023-03-31T13:57:59;1.63;;;0.63;;
8500;SDS011;4288;48.484;10.024;2023-03-31T14:00:51;2.23;;;0.67;;
8500;SDS011;4288;48.484;10.024;2023-03-31T14:03:24;3.80;;;0.90;;
8500;SDS011;4288;48.484;10.024;2023-03-31T14:05:56;5.17;;;1.10;;
8500;SDS011;4288;48.484;10.024;2023-03-31T14:08:28;3.20;;;1.03;;
8500;SDS011;4288;48.484;10.024;2023-03-31T14:11:16;1.30;;;0.70;;
8500;SDS011;4288;48.484;10.024;2023-03-31T14:13:57;5.70;;;0.77;;
8500;SDS011;4288;48.484;10.024;2023-03-31T14:16:25;4.37;;;0.60;;
8500;SDS011;4288;48.484;10.024;2023-03-31T14:18:52;1.80;;;0.50;;
8500;SDS011;4288;48.484;10.024;2023-03-31T14:21:27;3.43;;;0.80;;
8500;SDS011;4288;48.484;10.024;2023-03-31T14:23:59;2.77;;;0.90;;
8500;SDS011;4288;48.484;10.024;2023-03-31T14:26:36;3.17;;;0.77;;
8500;SDS011;4288;48.484;10.024;2023-03-31T14:29:11;4.77;;;1.20;;
8500;SDS011;4288;48.484;10.024;2023-03-31T14:31:43;3.20;;;1.07;;
8500;SDS011;4288;48.484;10.024;2023-03-31T14:37:13;1.50;;;0.70;;
8500;SDS011;4288;48.484;10.024;2023-03-31T14:39:43;1.10;;;0.70;;
8500;SDS011;4288;48.484;10.024;2023-03-31T14:42:12;3.03;;;1.67;;
8500;SDS011;4288;48.484;10.024;2023-03-31T14:44:39;2.10;;;0.70;;
8500;SDS011;4288;48.484;10.024;2023-03-31T14:47:11;6.10;;;0.80;;
8500;SDS011;4288;48.484;10.024;2023-03-31T14:49:39;3.33;;;0.80;;
8500;SDS011;4288;48.484;10.024;2023-03-31T14:52:12;3.97;;;0.90;;
8500;SDS011;4288;48.484;10.024;2023-03-31T14:54:44;3.27;;;0.60;;
8500;SDS011;4288;48.484;10.024;2023-03-31T14:57:13;1.50;;;0.70;;
8500;SDS011;4288;48.484;10.024;2023-03-31T14:59:43;2.87;;;0.73;;
8500;SDS011;4288;48.484;10.024;2023-03-31T15:02:12;3.63;;;0.67;;
8500;SDS011;4288;48.484;10.024;2023-03-31T15:04:42;0.90;;;0.60;;
8500;SDS011;4288;48.484;10.024;2023-03-31T15:07:12;0.97;;;0.60;;
8500;SDS011;4288;48.484;10.024;2023-03-31T15:09:39;1.80;;;0.50;;
8500;SDS011;4288;48.484;10.024;2023-03-31T15:12:10;3.13;;;0.90;;
8500;SDS011;4288;48.484;10.024;2023-03-31T15:14:39;0.80;;;0.67;;
8500;SDS011;4288;48.484;10.024;2023-03-31T15:17:15;0.93;;;0.60;;
8500;SDS011;4288;48.484;10.024;2023-03-31T15:19:50;1.20;;;0.70;;
8500;SDS011;4288;48.484;10.024;2023-03-31T15:22:19;0.70;;;0.70;;
8500;SDS011;4288;48.484;10.024;2023-03-31T15:24:48;5.87;;;0.60;;
8500;SDS011;4288;48.484;10.024;2023-03-31T15:27:17;1.10;;;0.60;;
8500;SDS011;4288;48.484;10.024;2023-03-31T15:29:49;2.43;;;0.63;;
8500;SDS011;4288;48.484;10.024;2023-03-31T15:32:18;1.03;;;0.43;;
8500;SDS011;4288;48.484;10.024;2023-03-31T15:34:50;1.80;;;0.50;;
8500;SDS011;4288;48.484;10.024;2023-03-31T15:37:20;0.50;;;0.50;;
8500;SDS011;4288;48.484;10.024;2023-03-31T15:39:48;1.97;;;0.57;;
8500;SDS011;4288;48.484;10.024;2023-03-31T15:42:14;1.10;;;0.43;;
8500;SDS011;4288;48.484;10.024;2023-03-31T15:44:43;1.43;;;0.50;;
8500;SDS011;4288;48.484;10.024;2023-03-31T15:47:12;4.50;;;0.90;;
8500;SDS011;4288;48.484;10.024;2023-03-31T15:49:49;1.93;;;0.43;;